sensor_id;sensor_type;location;lat;lon;timestamp;P1;durP1;ratioP1;P2;durP2;ratioP2
30301;SDS011;17111;52.130;5.028;2023-05-28T00:00:27;15.32;;;9.80;;
30301;SDS011;17111;52.130;5.028;2023-05-28T00:02:54;19.13;;;9.95;;
30301;SDS011;17111;52.130;5.028;2023-05-28T00:05:23;15.98;;;9.27;;
30301;SDS011;17111;52.130;5.028;2023-05-28T00:07:49;16.15;;;9.85;;
30301;SDS011;17111;52.130;5.028;2023-05-28T00:10:16;18.75;;;10.55;;
30301;SDS011;17111;52.130;5.028;2023-05-28T00:12:43;20.55;;;10.15;;
30301;SDS011;17111;52.130;5.028;2023-05-28T00:15:09;17.10;;;9.57;;
30301;SDS011;17111;52.130;5.028;2023-05-28T00:17:36;17.52;;;10.10;;
30301;SDS011;17111;52.130;5.028;2023-05-28T00:20:03;17.45;;;10.40;;
30301;SDS011;17111;52.130;5.028;2023-05-28T00:22:31;19.00;;;10.15;;
30301;SDS011;17111;52.130;5.028;2023-05-28T00:24:58;17.50;;;9.40;;
30301;SDS011;17111;52.130;5.028;2023-05-28T00:27:26;18.05;;;9.93;;
30301;SDS011;17111;52.130;5.028;2023-05-28T00:29:52;18.13;;;9.73;;
30301;SDS011;17111;52.130;5.028;2023-05-28T00:32:19;18.35;;;9.95;;
30301;SDS011;17111;52.130;5.028;2023-05-28T00:34:46;15.32;;;8.93;;
30301;SDS011;17111;52.130;5.028;2023-05-28T00:37:12;19.08;;;9.85;;
30301;SDS011;17111;52.130;5.028;2023-05-28T00:39:39;17.33;;;10.68;;
30301;SDS011;17111;52.130;5.028;2023-05-28T00:42:06;17.73;;;9.40;;
30301;SDS011;17111;52.130;5.028;2023-05-28T00:44:33;15.73;;;8.98;;
30301;SDS011;17111;52.130;5.028;2023-05-28T00:47:00;15.80;;;9.43;;
30301;SDS011;17111;52.130;5.028;2023-05-28T00:49:28;16.92;;;9.10;;
30301;SDS011;17111;52.130;5.028;2023-05-28T00:51:55;14.95;;;8.82;;
30301;SDS011;17111;52.130;5.028;2023-05-28T00:54:23;17.00;;;9.45;;
30301;SDS011;17111;52.130;5.028;2023-05-28T00:56:49;15.75;;;9.18;;
30301;SDS011;17111;52.130;5.028;2023-05-28T00:59:19;13.50;;;8.93;;
30301;SDS011;17111;52.130;5.028;2023-05-28T01:01:46;14.35;;;8.77;;
30301;SDS011;17111;52.130;5.028;2023-05-28T01:04:14;19.58;;;9.63;;
30301;SDS011;17111;52.130;5.028;2023-05-28T01:06:40;16.55;;;8.80;;
30301;SDS011;17111;52.130;5.028;2023-05-28T01:09:10;15.95;;;9.40;;
30301;SDS011;17111;52.130;5.028;2023-05-28T01:11:39;14.00;;;8.52;;
30301;SDS011;17111;52.130;5.028;2023-05-28T01:14:07;15.63;;;8.80;;
30301;SDS011;17111;52.130;5.028;2023-05-28T01:16:34;14.02;;;9.02;;
30301;SDS011;17111;52.130;5.028;2023-05-28T01:19:01;16.50;;;9.05;;
30301;SDS011;17111;52.130;5.028;2023-05-28T01:21:40;16.95;;;9.45;;
30301;SDS011;17111;52.130;5.028;2023-05-28T01:24:08;13.85;;;8.68;;
30301;SDS011;17111;52.130;5.028;2023-05-28T01:26:36;14.05;;;7.90;;
30301;SDS011;17111;52.130;5.028;2023-05-28T01:29:12;15.32;;;9.32;;
30301;SDS011;17111;52.130;5.028;2023-05-28T01:31:41;16.23;;;8.23;;
30301;SDS011;17111;52.130;5.028;2023-05-28T01:34:08;13.55;;;7.97;;
30301;SDS011;17111;52.130;5.028;2023-05-28T01:36:36;12.50;;;8.27;;
30301;SDS011;17111;52.130;5.028;2023-05-28T01:39:09;11.63;;;7.47;;
30301;SDS011;17111;52.130;5.028;2023-05-28T01:41:42;13.05;;;8.27;;
30301;SDS011;17111;52.130;5.028;2023-05-28T01:44:14;15.13;;;8.65;;
30301;SDS011;17111;52.130;5.028;2023-05-28T01:46:43;15.85;;;8.50;;
30301;SDS011;17111;52.130;5.028;2023-05-28T01:49:12;14.65;;;8.48;;
30301;SDS011;17111;52.130;5.028;2023-05-28T01:51:38;13.65;;;7.95;;
30301;SDS011;17111;52.130;5.028;2023-05-28T01:54:05;16.33;;;7.90;;
30301;SDS011;17111;52.130;5.028;2023-05-28T01:56:32;13.75;;;7.85;;
30301;SDS011;17111;52.130;5.028;2023-05-28T01:58:58;14.10;;;7.72;;
30301;SDS011;17111;52.130;5.028;2023-05-28T02:01:31;13.60;;;7.38;;
30301;SDS011;17111;52.130;5.028;2023-05-28T02:04:02;11.35;;;7.18;;
30301;SDS011;17111;52.130;5.028;2023-05-28T02:06:30;13.45;;;7.43;;
30301;SDS011;17111;52.130;5.028;2023-05-28T02:08:58;14.32;;;7.65;;
30301;SDS011;17111;52.130;5.028;2023-05-28T02:11:27;15.30;;;8.02;;
30301;SDS011;17111;52.130;5.028;2023-05-28T02:13:54;12.93;;;7.15;;
30301;SDS011;17111;52.130;5.028;2023-05-28T02:16:20;12.90;;;7.35;;
30301;SDS011;17111;52.130;5.028;2023-05-28T02:18:50;13.13;;;7.25;;
30301;SDS011;17111;52.130;5.028;2023-05-28T02:21:18;12.25;;;7.68;;
30301;SDS011;17111;52.130;5.028;2023-05-28T02:23:46;12.25;;;7.15;;
30301;SDS011;17111;52.130;5.028;2023-05-28T02:26:14;13.90;;;7.22;;
30301;SDS011;17111;52.130;5.028;2023-05-28T02:28:41;11.98;;;7.00;;
30301;SDS011;17111;52.130;5.028;2023-05-28T02:31:12;11.40;;;6.95;;
30301;SDS011;17111;52.130;5.028;2023-05-28T02:33:40;10.95;;;6.80;;
30301;SDS011;17111;52.130;5.028;2023-05-28T02:36:10;11.98;;;6.88;;
30301;SDS011;17111;52.130;5.028;2023-05-28T02:38:40;12.43;;;7.10;;
30301;SDS011;17111;52.130;5.028;2023-05-28T02:41:07;12.77;;;7.13;;
30301;SDS011;17111;52.130;5.028;2023-05-28T02:43:35;11.85;;;6.80;;
30301;SDS011;17111;52.130;5.028;2023-05-28T02:46:01;11.68;;;6.40;;
30301;SDS011;17111;52.130;5.028;2023-05-28T02:48:28;10.73;;;6.07;;
30301;SDS011;17111;52.130;5.028;2023-05-28T02:50:55;13.85;;;6.95;;
30301;SDS011;17111;52.130;5.028;2023-05-28T02:53:21;12.77;;;6.68;;
30301;SDS011;17111;52.130;5.028;2023-05-28T02:55:49;12.57;;;6.43;;
30301;SDS011;17111;52.130;5.028;2023-05-28T02:58:16;10.60;;;6.32;;
30301;SDS011;17111;52.130;5.028;2023-05-28T03:00:43;8.60;;;5.50;;
30301;SDS011;17111;52.130;5.028;2023-05-28T03:03:10;10.80;;;6.68;;
30301;SDS011;17111;52.130;5.028;2023-05-28T03:05:37;12.57;;;6.50;;
30301;SDS011;17111;52.130;5.028;2023-05-28T03:08:04;12.13;;;6.60;;
30301;SDS011;17111;52.130;5.028;2023-05-28T03:10:30;10.43;;;5.78;;
30301;SDS011;17111;52.130;5.028;2023-05-28T03:12:57;12.15;;;6.60;;
30301;SDS011;17111;52.130;5.028;2023-05-28T03:15:24;8.15;;;5.32;;
30301;SDS011;17111;52.130;5.028;2023-05-28T03:17:53;11.70;;;6.55;;
30301;SDS011;17111;52.130;5.028;2023-05-28T03:20:20;11.43;;;5.93;;
30301;SDS011;17111;52.130;5.028;2023-05-28T03:22:48;9.30;;;5.45;;
30301;SDS011;17111;52.130;5.028;2023-05-28T03:25:15;9.45;;;5.72;;
30301;SDS011;17111;52.130;5.028;2023-05-28T03:27:42;11.93;;;5.70;;
30301;SDS011;17111;52.130;5.028;2023-05-28T03:30:08;10.02;;;5.90;;
30301;SDS011;17111;52.130;5.028;2023-05-28T03:32:36;9.90;;;5.45;;
30301;SDS011;17111;52.130;5.028;2023-05-28T03:35:03;11.38;;;5.53;;
30301;SDS011;17111;52.130;5.028;2023-05-28T03:37:30;8.90;;;5.55;;
30301;SDS011;17111;52.130;5.028;2023-05-28T03:39:56;8.45;;;4.88;;
30301;SDS011;17111;52.130;5.028;2023-05-28T03:42:23;8.40;;;5.32;;
30301;SDS011;17111;52.130;5.028;2023-05-28T03:44:49;10.35;;;5.20;;
30301;SDS011;17111;52.130;5.028;2023-05-28T03:47:16;10.32;;;5.07;;
30301;SDS011;17111;52.130;5.028;2023-05-28T03:49:43;10.10;;;4.63;;
30301;SDS011;17111;52.130;5.028;2023-05-28T03:52:09;10.30;;;5.07;;
30301;SDS011;17111;52.130;5.028;2023-05-28T03:54:36;10.13;;;5.10;;
30301;SDS011;17111;52.130;5.028;2023-05-28T03:57:03;9.48;;;5.15;;
30301;SDS011;17111;52.130;5.028;2023-05-28T03:59:30;7.68;;;4.53;;
30301;SDS011;17111;52.130;5.028;2023-05-28T04:01:56;9.45;;;5.20;;
30301;SDS011;17111;52.130;5.028;2023-05-28T04:04:23;10.07;;;4.82;;
30301;SDS011;17111;52.130;5.028;2023-05-28T04:06:50;8.32;;;4.43;;
30301;SDS011;17111;52.130;5.028;2023-05-28T04:09:17;9.10;;;4.63;;
30301;SDS011;17111;52.130;5.028;2023-05-28T04:11:43;11.82;;;5.10;;
30301;SDS011;17111;52.130;5.028;2023-05-28T04:14:10;7.63;;;4.43;;
30301;SDS011;17111;52.130;5.028;2023-05-28T04:16:36;8.52;;;4.47;;
30301;SDS011;17111;52.130;5.028;2023-05-28T04:19:03;9.30;;;4.60;;
30301;SDS011;17111;52.130;5.028;2023-05-28T04:21:30;7.22;;;4.40;;
30301;SDS011;17111;52.130;5.028;2023-05-28T04:23:58;9.00;;;4.90;;
30301;SDS011;17111;52.130;5.028;2023-05-28T04:26:24;6.53;;;4.20;;
30301;SDS011;17111;52.130;5.028;2023-05-28T04:28:51;6.50;;;3.97;;
30301;SDS011;17111;52.130;5.028;2023-05-28T04:31:19;7.32;;;4.18;;
30301;SDS011;17111;52.130;5.028;2023-05-28T04:33:45;9.27;;;4.43;;
30301;SDS011;17111;52.130;5.028;2023-05-28T04:36:12;6.97;;;4.03;;
30301;SDS011;17111;52.130;5.028;2023-05-28T04:38:39;7.97;;;4.25;;
30301;SDS011;17111;52.130;5.028;2023-05-28T04:41:08;7.00;;;4.20;;
30301;SDS011;17111;52.130;5.028;2023-05-28T04:43:35;8.90;;;4.47;;
30301;SDS011;17111;52.130;5.028;2023-05-28T04:46:02;8.63;;;4.85;;
30301;SDS011;17111;52.130;5.028;2023-05-28T04:48:30;6.82;;;4.18;;
30301;SDS011;17111;52.130;5.028;2023-05-28T04:51:01;7.47;;;4.10;;
30301;SDS011;17111;52.130;5.028;2023-05-28T04:53:31;9.25;;;4.10;;
30301;SDS011;17111;52.130;5.028;2023-05-28T04:56:00;8.60;;;3.90;;
30301;SDS011;17111;52.130;5.028;2023-05-28T04:58:27;8.73;;;3.85;;
30301;SDS011;17111;52.130;5.028;2023-05-28T05:00:53;6.88;;;3.78;;
30301;SDS011;17111;52.130;5.028;2023-05-28T05:03:22;7.22;;;4.28;;
30301;SDS011;17111;52.130;5.028;2023-05-28T05:05:48;8.70;;;4.05;;
30301;SDS011;17111;52.130;5.028;2023-05-28T05:08:15;7.43;;;3.80;;
30301;SDS011;17111;52.130;5.028;2023-05-28T05:10:42;6.55;;;3.53;;
30301;SDS011;17111;52.130;5.028;2023-05-28T05:13:09;6.03;;;3.60;;
30301;SDS011;17111;52.130;5.028;2023-05-28T05:15:36;5.88;;;3.60;;
30301;SDS011;17111;52.130;5.028;2023-05-28T05:18:02;6.68;;;3.70;;
30301;SDS011;17111;52.130;5.028;2023-05-28T05:20:29;6.40;;;3.90;;
30301;SDS011;17111;52.130;5.028;2023-05-28T05:22:56;6.78;;;4.25;;
30301;SDS011;17111;52.130;5.028;2023-05-28T05:25:23;8.30;;;3.95;;
30301;SDS011;17111;52.130;5.028;2023-05-28T05:27:49;7.57;;;4.30;;
30301;SDS011;17111;52.130;5.028;2023-05-28T05:30:17;6.40;;;3.55;;
30301;SDS011;17111;52.130;5.028;2023-05-28T05:32:43;6.40;;;3.55;;
30301;SDS011;17111;52.130;5.028;2023-05-28T05:35:11;8.18;;;3.80;;
30301;SDS011;17111;52.130;5.028;2023-05-28T05:37:38;5.50;;;3.70;;
30301;SDS011;17111;52.130;5.028;2023-05-28T05:40:04;6.00;;;3.45;;
30301;SDS011;17111;52.130;5.028;2023-05-28T05:42:32;5.93;;;3.17;;
30301;SDS011;17111;52.130;5.028;2023-05-28T05:44:58;7.45;;;3.58;;
30301;SDS011;17111;52.130;5.028;2023-05-28T05:47:25;8.07;;;3.60;;
30301;SDS011;17111;52.130;5.028;2023-05-28T05:49:52;11.20;;;4.88;;
30301;SDS011;17111;52.130;5.028;2023-05-28T05:52:18;10.15;;;5.55;;
30301;SDS011;17111;52.130;5.028;2023-05-28T05:54:45;11.00;;;5.85;;
30301;SDS011;17111;52.130;5.028;2023-05-28T05:57:12;10.68;;;6.22;;
30301;SDS011;17111;52.130;5.028;2023-05-28T05:59:38;9.70;;;5.75;;
30301;SDS011;17111;52.130;5.028;2023-05-28T06:02:05;10.68;;;6.45;;
30301;SDS011;17111;52.130;5.028;2023-05-28T06:04:33;12.80;;;6.78;;
30301;SDS011;17111;52.130;5.028;2023-05-28T06:07:00;12.13;;;5.90;;
30301;SDS011;17111;52.130;5.028;2023-05-28T06:09:30;13.40;;;7.35;;
30301;SDS011;17111;52.130;5.028;2023-05-28T06:11:58;13.68;;;6.72;;
30301;SDS011;17111;52.130;5.028;2023-05-28T06:14:26;11.77;;;7.25;;
30301;SDS011;17111;52.130;5.028;2023-05-28T06:16:53;13.15;;;6.85;;
30301;SDS011;17111;52.130;5.028;2023-05-28T06:19:20;15.73;;;7.68;;
30301;SDS011;17111;52.130;5.028;2023-05-28T06:21:47;11.55;;;7.13;;
30301;SDS011;17111;52.130;5.028;2023-05-28T06:24:14;12.57;;;6.97;;
30301;SDS011;17111;52.130;5.028;2023-05-28T06:26:41;14.05;;;7.88;;
30301;SDS011;17111;52.130;5.028;2023-05-28T06:29:07;14.68;;;8.35;;
30301;SDS011;17111;52.130;5.028;2023-05-28T06:31:36;16.60;;;8.48;;
30301;SDS011;17111;52.130;5.028;2023-05-28T06:34:03;14.48;;;8.20;;
30301;SDS011;17111;52.130;5.028;2023-05-28T06:36:29;17.15;;;9.10;;
30301;SDS011;17111;52.130;5.028;2023-05-28T06:38:56;16.10;;;9.20;;
30301;SDS011;17111;52.130;5.028;2023-05-28T06:41:23;19.50;;;9.00;;
30301;SDS011;17111;52.130;5.028;2023-05-28T06:43:49;15.52;;;9.05;;
30301;SDS011;17111;52.130;5.028;2023-05-28T06:46:16;15.23;;;9.07;;
30301;SDS011;17111;52.130;5.028;2023-05-28T06:48:43;17.67;;;9.90;;
30301;SDS011;17111;52.130;5.028;2023-05-28T06:51:10;19.75;;;9.50;;
30301;SDS011;17111;52.130;5.028;2023-05-28T06:53:37;15.32;;;9.75;;
30301;SDS011;17111;52.130;5.028;2023-05-28T06:56:05;19.35;;;10.55;;
30301;SDS011;17111;52.130;5.028;2023-05-28T06:58:32;20.35;;;10.82;;
30301;SDS011;17111;52.130;5.028;2023-05-28T07:00:59;20.70;;;11.70;;
30301;SDS011;17111;52.130;5.028;2023-05-28T07:03:27;22.90;;;12.45;;
30301;SDS011;17111;52.130;5.028;2023-05-28T07:05:54;19.88;;;12.68;;
30301;SDS011;17111;52.130;5.028;2023-05-28T07:08:21;24.92;;;13.43;;
30301;SDS011;17111;52.130;5.028;2023-05-28T07:10:48;25.70;;;14.13;;
30301;SDS011;17111;52.130;5.028;2023-05-28T07:13:15;26.95;;;14.75;;
30301;SDS011;17111;52.130;5.028;2023-05-28T07:15:41;31.25;;;15.55;;
30301;SDS011;17111;52.130;5.028;2023-05-28T07:18:08;27.73;;;16.00;;
30301;SDS011;17111;52.130;5.028;2023-05-28T07:20:35;31.05;;;18.83;;
30301;SDS011;17111;52.130;5.028;2023-05-28T07:23:01;28.38;;;17.60;;
30301;SDS011;17111;52.130;5.028;2023-05-28T07:25:28;33.20;;;18.63;;
30301;SDS011;17111;52.130;5.028;2023-05-28T07:27:55;33.33;;;18.45;;
30301;SDS011;17111;52.130;5.028;2023-05-28T07:30:22;39.58;;;20.05;;
30301;SDS011;17111;52.130;5.028;2023-05-28T07:32:49;44.65;;;19.92;;
30301;SDS011;17111;52.130;5.028;2023-05-28T07:35:15;38.58;;;19.15;;
30301;SDS011;17111;52.130;5.028;2023-05-28T07:37:42;42.20;;;20.13;;
30301;SDS011;17111;52.130;5.028;2023-05-28T07:40:09;68.43;;;21.80;;
30301;SDS011;17111;52.130;5.028;2023-05-28T07:42:37;51.88;;;23.35;;
30301;SDS011;17111;52.130;5.028;2023-05-28T07:45:03;55.28;;;22.98;;
30301;SDS011;17111;52.130;5.028;2023-05-28T07:47:31;57.75;;;22.65;;
30301;SDS011;17111;52.130;5.028;2023-05-28T07:49:57;46.05;;;21.35;;
30301;SDS011;17111;52.130;5.028;2023-05-28T07:52:24;47.00;;;19.27;;
30301;SDS011;17111;52.130;5.028;2023-05-28T07:54:58;54.10;;;21.25;;
30301;SDS011;17111;52.130;5.028;2023-05-28T07:57:26;53.83;;;20.50;;
30301;SDS011;17111;52.130;5.028;2023-05-28T07:59:52;50.55;;;18.30;;
30301;SDS011;17111;52.130;5.028;2023-05-28T08:02:19;40.25;;;16.90;;
30301;SDS011;17111;52.130;5.028;2023-05-28T08:04:46;45.05;;;18.73;;
30301;SDS011;17111;52.130;5.028;2023-05-28T08:07:14;43.92;;;17.33;;
30301;SDS011;17111;52.130;5.028;2023-05-28T08:09:41;42.75;;;18.50;;
30301;SDS011;17111;52.130;5.028;2023-05-28T08:12:08;38.03;;;16.85;;
30301;SDS011;17111;52.130;5.028;2023-05-28T08:14:35;41.22;;;17.45;;
30301;SDS011;17111;52.130;5.028;2023-05-28T08:17:01;40.05;;;17.38;;
30301;SDS011;17111;52.130;5.028;2023-05-28T08:19:28;35.10;;;15.77;;
30301;SDS011;17111;52.130;5.028;2023-05-28T08:21:55;42.40;;;17.45;;
30301;SDS011;17111;52.130;5.028;2023-05-28T08:24:21;39.00;;;16.20;;
30301;SDS011;17111;52.130;5.028;2023-05-28T08:26:48;36.75;;;15.55;;
30301;SDS011;17111;52.130;5.028;2023-05-28T08:29:15;33.15;;;13.57;;
30301;SDS011;17111;52.130;5.028;2023-05-28T08:31:41;28.85;;;13.18;;
30301;SDS011;17111;52.130;5.028;2023-05-28T08:34:08;24.58;;;12.52;;
30301;SDS011;17111;52.130;5.028;2023-05-28T08:36:35;32.35;;;12.60;;
30301;SDS011;17111;52.130;5.028;2023-05-28T08:39:02;33.75;;;13.18;;
30301;SDS011;17111;52.130;5.028;2023-05-28T08:41:29;27.27;;;13.30;;
30301;SDS011;17111;52.130;5.028;2023-05-28T08:43:56;25.92;;;11.93;;
30301;SDS011;17111;52.130;5.028;2023-05-28T08:46:23;29.67;;;13.27;;
30301;SDS011;17111;52.130;5.028;2023-05-28T08:48:49;25.65;;;13.63;;
30301;SDS011;17111;52.130;5.028;2023-05-28T08:51:17;33.08;;;13.77;;
30301;SDS011;17111;52.130;5.028;2023-05-28T08:53:49;24.05;;;11.77;;
30301;SDS011;17111;52.130;5.028;2023-05-28T08:56:17;22.60;;;12.05;;
30301;SDS011;17111;52.130;5.028;2023-05-28T08:58:45;28.15;;;12.27;;
30301;SDS011;17111;52.130;5.028;2023-05-28T09:01:12;26.50;;;13.10;;
30301;SDS011;17111;52.130;5.028;2023-05-28T09:03:39;25.10;;;12.40;;
30301;SDS011;17111;52.130;5.028;2023-05-28T09:06:07;24.35;;;11.63;;
30301;SDS011;17111;52.130;5.028;2023-05-28T09:08:35;26.73;;;12.63;;
30301;SDS011;17111;52.130;5.028;2023-05-28T09:11:08;23.85;;;11.43;;
30301;SDS011;17111;52.130;5.028;2023-05-28T09:13:43;22.55;;;11.23;;
30301;SDS011;17111;52.130;5.028;2023-05-28T09:16:18;30.33;;;12.40;;
30301;SDS011;17111;52.130;5.028;2023-05-28T09:18:52;20.15;;;10.65;;
30301;SDS011;17111;52.130;5.028;2023-05-28T09:21:29;26.50;;;11.18;;
30301;SDS011;17111;52.130;5.028;2023-05-28T09:23:56;25.75;;;11.23;;
30301;SDS011;17111;52.130;5.028;2023-05-28T09:26:22;22.77;;;10.13;;
30301;SDS011;17111;52.130;5.028;2023-05-28T09:28:50;19.92;;;10.77;;
30301;SDS011;17111;52.130;5.028;2023-05-28T09:31:18;21.95;;;11.13;;
30301;SDS011;17111;52.130;5.028;2023-05-28T09:33:45;20.48;;;10.52;;
30301;SDS011;17111;52.130;5.028;2023-05-28T09:36:15;21.73;;;11.25;;
30301;SDS011;17111;52.130;5.028;2023-05-28T09:38:43;21.73;;;9.98;;
30301;SDS011;17111;52.130;5.028;2023-05-28T09:41:17;20.02;;;10.30;;
30301;SDS011;17111;52.130;5.028;2023-05-28T09:43:45;21.38;;;10.15;;
30301;SDS011;17111;52.130;5.028;2023-05-28T09:46:12;22.38;;;9.68;;
30301;SDS011;17111;52.130;5.028;2023-05-28T09:48:39;19.20;;;9.75;;
30301;SDS011;17111;52.130;5.028;2023-05-28T09:51:06;18.80;;;10.30;;
30301;SDS011;17111;52.130;5.028;2023-05-28T09:53:39;20.15;;;9.27;;
30301;SDS011;17111;52.130;5.028;2023-05-28T09:56:10;15.98;;;8.63;;
30301;SDS011;17111;52.130;5.028;2023-05-28T09:58:38;21.67;;;9.05;;
30301;SDS011;17111;52.130;5.028;2023-05-28T10:01:11;16.88;;;9.02;;
30301;SDS011;17111;52.130;5.028;2023-05-28T10:03:43;16.95;;;8.63;;
30301;SDS011;17111;52.130;5.028;2023-05-28T10:06:16;16.50;;;9.00;;
30301;SDS011;17111;52.130;5.028;2023-05-28T10:08:47;19.67;;;9.38;;
30301;SDS011;17111;52.130;5.028;2023-05-28T10:13:48;14.32;;;8.02;;
30301;SDS011;17111;52.130;5.028;2023-05-28T10:16:15;14.43;;;8.70;;
30301;SDS011;17111;52.130;5.028;2023-05-28T10:18:41;17.13;;;8.27;;
30301;SDS011;17111;52.130;5.028;2023-05-28T10:21:08;17.55;;;8.65;;
30301;SDS011;17111;52.130;5.028;2023-05-28T10:23:37;13.90;;;8.10;;
30301;SDS011;17111;52.130;5.028;2023-05-28T10:26:04;16.20;;;7.95;;
30301;SDS011;17111;52.130;5.028;2023-05-28T10:28:31;16.33;;;8.50;;
30301;SDS011;17111;52.130;5.028;2023-05-28T10:31:05;16.63;;;8.20;;
30301;SDS011;17111;52.130;5.028;2023-05-28T10:33:37;13.98;;;6.88;;
30301;SDS011;17111;52.130;5.028;2023-05-28T10:36:05;15.02;;;7.72;;
30301;SDS011;17111;52.130;5.028;2023-05-28T10:38:41;14.77;;;7.72;;
30301;SDS011;17111;52.130;5.028;2023-05-28T10:41:09;15.57;;;7.90;;
30301;SDS011;17111;52.130;5.028;2023-05-28T10:43:43;12.65;;;7.25;;
30301;SDS011;17111;52.130;5.028;2023-05-28T10:46:14;12.02;;;7.15;;
30301;SDS011;17111;52.130;5.028;2023-05-28T10:54:22;13.02;;;7.03;;
30301;SDS011;17111;52.130;5.028;2023-05-28T10:57:14;11.02;;;6.20;;
30301;SDS011;17111;52.130;5.028;2023-05-28T11:04:53;12.55;;;6.93;;
30301;SDS011;17111;52.130;5.028;2023-05-28T11:07:20;11.98;;;6.13;;
30301;SDS011;17111;52.130;5.028;2023-05-28T11:09:51;10.75;;;6.28;;
30301;SDS011;17111;52.130;5.028;2023-05-28T11:12:21;12.18;;;6.70;;
30301;SDS011;17111;52.130;5.028;2023-05-28T11:14:48;12.70;;;6.55;;
30301;SDS011;17111;52.130;5.028;2023-05-28T11:17:15;10.60;;;5.93;;
30301;SDS011;17111;52.130;5.028;2023-05-28T11:19:43;11.05;;;6.40;;
30301;SDS011;17111;52.130;5.028;2023-05-28T11:22:14;10.88;;;5.53;;
30301;SDS011;17111;52.130;5.028;2023-05-28T11:24:58;12.60;;;6.57;;
30301;SDS011;17111;52.130;5.028;2023-05-28T11:27:31;10.23;;;5.75;;
30301;SDS011;17111;52.130;5.028;2023-05-28T11:29:59;12.15;;;5.82;;
30301;SDS011;17111;52.130;5.028;2023-05-28T11:32:32;14.40;;;6.50;;
30301;SDS011;17111;52.130;5.028;2023-05-28T11:34:59;11.45;;;6.07;;
30301;SDS011;17111;52.130;5.028;2023-05-28T11:37:31;11.05;;;5.53;;
30301;SDS011;17111;52.130;5.028;2023-05-28T11:39:59;11.40;;;5.72;;
30301;SDS011;17111;52.130;5.028;2023-05-28T11:42:27;9.98;;;5.45;;
30301;SDS011;17111;52.130;5.028;2023-05-28T11:44:55;10.07;;;5.57;;
30301;SDS011;17111;52.130;5.028;2023-05-28T11:47:23;9.35;;;5.22;;
30301;SDS011;17111;52.130;5.028;2023-05-28T11:49:50;10.13;;;5.70;;
30301;SDS011;17111;52.130;5.028;2023-05-28T11:52:21;9.13;;;5.05;;
30301;SDS011;17111;52.130;5.028;2023-05-28T11:54:53;9.85;;;5.38;;
30301;SDS011;17111;52.130;5.028;2023-05-28T11:57:24;10.90;;;5.03;;
30301;SDS011;17111;52.130;5.028;2023-05-28T12:02:47;9.32;;;5.10;;
30301;SDS011;17111;52.130;5.028;2023-05-28T12:05:16;9.18;;;4.30;;
30301;SDS011;17111;52.130;5.028;2023-05-28T12:07:44;8.18;;;4.72;;
30301;SDS011;17111;52.130;5.028;2023-05-28T12:10:16;6.55;;;4.32;;
30301;SDS011;17111;52.130;5.028;2023-05-28T12:12:50;7.78;;;4.70;;
30301;SDS011;17111;52.130;5.028;2023-05-28T12:15:27;6.97;;;4.88;;
30301;SDS011;17111;52.130;5.028;2023-05-28T12:17:56;8.65;;;5.07;;
30301;SDS011;17111;52.130;5.028;2023-05-28T12:23:04;7.57;;;4.32;;
30301;SDS011;17111;52.130;5.028;2023-05-28T12:28:09;8.38;;;4.68;;
30301;SDS011;17111;52.130;5.028;2023-05-28T12:30:37;8.20;;;5.35;;
30301;SDS011;17111;52.130;5.028;2023-05-28T12:33:04;8.25;;;4.95;;
30301;SDS011;17111;52.130;5.028;2023-05-28T12:35:31;8.05;;;4.65;;
30301;SDS011;17111;52.130;5.028;2023-05-28T12:37:58;8.98;;;4.60;;
30301;SDS011;17111;52.130;5.028;2023-05-28T12:40:25;8.60;;;4.43;;
30301;SDS011;17111;52.130;5.028;2023-05-28T12:42:51;8.43;;;4.50;;
30301;SDS011;17111;52.130;5.028;2023-05-28T12:45:18;8.23;;;4.68;;
30301;SDS011;17111;52.130;5.028;2023-05-28T12:47:45;6.95;;;4.30;;
30301;SDS011;17111;52.130;5.028;2023-05-28T12:50:11;9.05;;;4.70;;
30301;SDS011;17111;52.130;5.028;2023-05-28T12:52:38;7.47;;;4.20;;
30301;SDS011;17111;52.130;5.028;2023-05-28T12:55:06;8.32;;;4.63;;
30301;SDS011;17111;52.130;5.028;2023-05-28T12:57:40;10.25;;;5.10;;
30301;SDS011;17111;52.130;5.028;2023-05-28T13:00:07;7.18;;;4.07;;
30301;SDS011;17111;52.130;5.028;2023-05-28T13:02:38;7.00;;;4.80;;
30301;SDS011;17111;52.130;5.028;2023-05-28T13:05:05;8.73;;;4.85;;
30301;SDS011;17111;52.130;5.028;2023-05-28T13:07:32;8.80;;;4.53;;
30301;SDS011;17111;52.130;5.028;2023-05-28T13:09:59;10.75;;;5.03;;
30301;SDS011;17111;52.130;5.028;2023-05-28T13:12:26;8.52;;;4.32;;
30301;SDS011;17111;52.130;5.028;2023-05-28T13:14:52;8.30;;;4.80;;
30301;SDS011;17111;52.130;5.028;2023-05-28T13:17:19;9.07;;;5.32;;
30301;SDS011;17111;52.130;5.028;2023-05-28T13:19:47;8.77;;;4.97;;
30301;SDS011;17111;52.130;5.028;2023-05-28T13:22:14;8.80;;;5.47;;
30301;SDS011;17111;52.130;5.028;2023-05-28T13:24:41;7.35;;;4.45;;
30301;SDS011;17111;52.130;5.028;2023-05-28T13:27:12;8.18;;;4.72;;
30301;SDS011;17111;52.130;5.028;2023-05-28T13:29:39;11.10;;;5.82;;
30301;SDS011;17111;52.130;5.028;2023-05-28T13:32:06;10.80;;;4.50;;
30301;SDS011;17111;52.130;5.028;2023-05-28T13:34:33;9.77;;;4.47;;
30301;SDS011;17111;52.130;5.028;2023-05-28T13:37:00;10.98;;;4.65;;
30301;SDS011;17111;52.130;5.028;2023-05-28T13:39:27;10.05;;;4.70;;
30301;SDS011;17111;52.130;5.028;2023-05-28T13:41:54;8.68;;;4.95;;
30301;SDS011;17111;52.130;5.028;2023-05-28T13:44:20;9.13;;;4.82;;
30301;SDS011;17111;52.130;5.028;2023-05-28T13:46:47;9.68;;;4.65;;
30301;SDS011;17111;52.130;5.028;2023-05-28T13:49:14;9.60;;;4.72;;
30301;SDS011;17111;52.130;5.028;2023-05-28T13:51:41;8.98;;;4.88;;
30301;SDS011;17111;52.130;5.028;2023-05-28T13:54:09;14.23;;;5.38;;
30301;SDS011;17111;52.130;5.028;2023-05-28T13:56:39;10.13;;;4.93;;
30301;SDS011;17111;52.130;5.028;2023-05-28T13:59:06;9.68;;;5.00;;
30301;SDS011;17111;52.130;5.028;2023-05-28T14:01:33;7.85;;;4.85;;
30301;SDS011;17111;52.130;5.028;2023-05-28T14:04:03;8.35;;;4.88;;
30301;SDS011;17111;52.130;5.028;2023-05-28T14:06:30;10.30;;;5.00;;
30301;SDS011;17111;52.130;5.028;2023-05-28T14:08:58;10.20;;;4.80;;
30301;SDS011;17111;52.130;5.028;2023-05-28T14:11:27;11.57;;;6.45;;
30301;SDS011;17111;52.130;5.028;2023-05-28T14:14:13;17.33;;;9.38;;
30301;SDS011;17111;52.130;5.028;2023-05-28T14:16:43;13.85;;;9.00;;
30301;SDS011;17111;52.130;5.028;2023-05-28T14:19:10;15.02;;;7.70;;
30301;SDS011;17111;52.130;5.028;2023-05-28T14:21:36;12.95;;;7.80;;
30301;SDS011;17111;52.130;5.028;2023-05-28T14:24:03;12.70;;;6.82;;
30301;SDS011;17111;52.130;5.028;2023-05-28T14:26:30;9.82;;;6.07;;
30301;SDS011;17111;52.130;5.028;2023-05-28T14:28:57;9.57;;;5.88;;
30301;SDS011;17111;52.130;5.028;2023-05-28T14:31:23;9.90;;;6.05;;
30301;SDS011;17111;52.130;5.028;2023-05-28T14:33:50;12.63;;;6.00;;
30301;SDS011;17111;52.130;5.028;2023-05-28T14:36:17;13.05;;;5.68;;
30301;SDS011;17111;52.130;5.028;2023-05-28T14:38:44;10.68;;;5.53;;
30301;SDS011;17111;52.130;5.028;2023-05-28T14:41:11;10.18;;;5.55;;
30301;SDS011;17111;52.130;5.028;2023-05-28T14:43:37;9.18;;;5.22;;
30301;SDS011;17111;52.130;5.028;2023-05-28T14:46:04;11.00;;;4.85;;
30301;SDS011;17111;52.130;5.028;2023-05-28T14:48:31;10.98;;;5.43;;
30301;SDS011;17111;52.130;5.028;2023-05-28T14:50:58;6.75;;;4.78;;
30301;SDS011;17111;52.130;5.028;2023-05-28T14:53:24;8.93;;;4.32;;
30301;SDS011;17111;52.130;5.028;2023-05-28T14:55:51;9.38;;;4.10;;
30301;SDS011;17111;52.130;5.028;2023-05-28T14:58:18;11.85;;;4.53;;
30301;SDS011;17111;52.130;5.028;2023-05-28T15:00:45;9.35;;;4.95;;